Time;durP1;ratioP1;P1;durP2;ratioP2;P2;SDS_P1;SDS_P2;PMS_P1;PMS_P2;Temp;Humidity;BMP_temperature;BMP_pressure;BME280_temperature;BME280_humidity;BME280_pressure;Samples;Min_cycle;Max_cycle;Signal;HPM_P1;HPM_P2
2023/06/12 00:01:17;;;;;;;5.43;3.33;;;18.70;95.90;;;;;;4965526;28;20517;-74
2023/06/12 00:03:44;;;;;;;9.40;3.60;;;18.70;96.10;;;;;;4966948;28;20486;-75
2023/06/12 00:06:12;;;;;;;7.00;4.93;;;18.70;96.10;;;;;;4966090;28;20843;-72
2023/06/12 00:08:41;;;;;;;8.33;4.07;;;18.60;96.50;;;;;;4970017;28;20517;-74
2023/06/12 00:11:12;;;;;;;8.00;3.70;;;18.60;96.80;;;;;;4969025;28;20443;-74
2023/06/12 00:13:39;;;;;;;4.83;3.97;;;18.50;97.10;;;;;;4967945;28;20499;-73
2023/06/12 00:16:08;;;;;;;4.90;3.53;;;18.50;97.50;;;;;;4969519;28;20459;-73
2023/06/12 00:18:36;;;;;;;4.47;3.93;;;18.40;97.80;;;;;;4964548;28;20442;-74
2023/06/12 00:21:03;;;;;;;8.60;4.23;;;18.40;98.20;;;;;;4963811;28;20445;-73
2023/06/12 00:23:29;;;;;;;6.77;4.20;;;18.30;98.50;;;;;;4965048;28;20558;-74
2023/06/12 00:25:56;;;;;;;6.50;4.30;;;18.20;98.60;;;;;;4969131;28;20478;-75
2023/06/12 00:28:23;;;;;;;6.27;4.00;;;18.20;99.20;;;;;;4965192;28;20819;-72
2023/06/12 00:30:50;;;;;;;7.13;4.50;;;18.20;99.50;;;;;;4970221;28;20447;-74
2023/06/12 00:33:18;;;;;;;9.93;5.43;;;18.10;99.70;;;;;;4973425;28;21047;-73
2023/06/12 00:35:45;;;;;;;4.30;3.77;;;18.10;99.90;;;;;;4970517;28;20985;-73
2023/06/12 00:38:13;;;;;;;4.90;4.10;;;18.10;99.90;;;;;;4966867;28;20872;-74
2023/06/12 00:40:40;;;;;;;7.00;5.53;;;18.10;99.90;;;;;;4974985;28;20452;-73
2023/06/12 00:43:08;;;;;;;9.70;5.10;;;18.10;99.90;;;;;;4975485;28;20490;-71
2023/06/12 00:45:36;;;;;;;5.90;3.90;;;18.10;99.90;;;;;;4983611;28;20932;-73
2023/06/12 00:48:04;;;;;;;7.60;4.47;;;18.00;99.90;;;;;;4965746;28;21150;-76
2023/06/12 00:50:33;;;;;;;5.93;4.03;;;18.00;99.90;;;;;;4969808;28;20474;-74
2023/06/12 00:53:00;;;;;;;6.53;4.20;;;18.00;99.90;;;;;;4970871;28;20497;-76
2023/06/12 00:55:29;;;;;;;15.77;4.70;;;17.90;99.90;;;;;;4968727;28;20809;-73
2023/06/12 00:57:56;;;;;;;8.23;4.80;;;17.80;99.90;;;;;;4963518;28;20455;-74
2023/06/12 01:00:24;;;;;;;6.10;4.43;;;17.70;99.90;;;;;;4967717;28;20480;-73
2023/06/12 01:02:54;;;;;;;7.37;4.47;;;17.70;99.90;;;;;;4968460;28;20583;-75
2023/06/12 01:05:28;;;;;;;5.57;4.40;;;17.60;99.90;;;;;;4965296;28;20945;-74
2023/06/12 01:08:03;;;;;;;6.43;4.63;;;17.50;99.90;;;;;;4973262;28;20445;-72
2023/06/12 01:10:38;;;;;;;10.93;4.67;;;17.50;99.90;;;;;;4966732;28;20536;-74
2023/06/12 01:13:06;;;;;;;8.47;5.00;;;17.40;99.90;;;;;;4969858;28;20476;-75
2023/06/12 01:15:33;;;;;;;4.93;4.33;;;17.40;99.90;;;;;;4968856;28;20918;-75
2023/06/12 01:18:00;;;;;;;8.17;4.80;;;17.30;99.90;;;;;;4971189;28;20524;-73
2023/06/12 01:20:27;;;;;;;8.07;5.40;;;17.30;99.90;;;;;;4965589;28;20453;-75
2023/06/12 01:23:02;;;;;;;10.25;5.20;;;17.30;99.90;;;;;;4964644;28;20525;-75
2023/06/12 01:26:03;;;;;;;6.47;4.20;;;17.20;99.90;;;;;;4962851;28;20575;-74
2023/06/12 01:29:20;;;;;;;5.70;4.70;;;17.10;99.90;;;;;;4974102;28;20988;-73
2023/06/12 01:32:01;;;;;;;6.47;4.63;;;17.10;99.90;;;;;;4968528;28;20512;-76
2023/06/12 01:34:33;;;;;;;11.20;5.17;;;17.00;99.90;;;;;;4967731;28;20456;-73
2023/06/12 01:37:09;;;;;;;6.25;4.45;;;17.00;99.90;;;;;;4968764;28;20448;-73
2023/06/12 01:39:41;;;;;;;6.67;4.40;;;17.00;99.90;;;;;;4962621;28;20213;-73
2023/06/12 01:42:09;;;;;;;11.27;5.40;;;16.90;99.90;;;;;;4968402;28;20496;-76
2023/06/12 01:44:36;;;;;;;7.50;4.97;;;16.90;99.90;;;;;;4967332;28;20525;-75
2023/06/12 01:47:05;;;;;;;6.83;4.90;;;16.90;99.90;;;;;;4970448;28;20468;-74
2023/06/12 01:49:32;;;;;;;7.55;5.10;;;16.80;99.90;;;;;;4972748;28;20487;-74
2023/06/12 01:51:59;;;;;;;6.97;4.40;;;16.80;99.90;;;;;;4978591;28;20222;-75
2023/06/12 01:54:27;;;;;;;4.93;4.32;;;16.80;99.90;;;;;;4967040;28;20800;-75
2023/06/12 01:56:55;;;;;;;16.70;5.17;;;16.70;99.90;;;;;;4985917;28;20273;-74
2023/06/12 01:59:21;;;;;;;15.43;5.60;;;16.70;99.90;;;;;;4974550;28;20535;-76
2023/06/12 02:01:48;;;;;;;7.47;4.97;;;16.70;99.90;;;;;;4965170;28;20488;-74
2023/06/12 02:04:17;;;;;;;5.53;4.13;;;16.70;99.90;;;;;;4965825;28;20475;-74
2023/06/12 02:06:44;;;;;;;9.47;5.43;;;16.70;99.90;;;;;;4974252;28;20445;-74
2023/06/12 02:09:11;;;;;;;6.50;5.40;;;16.70;99.90;;;;;;4971703;28;20500;-75
2023/06/12 02:11:38;;;;;;;6.93;4.90;;;16.70;99.90;;;;;;4965562;28;20535;-74
2023/06/12 02:14:05;;;;;;;7.30;5.53;;;16.60;99.90;;;;;;4971527;28;20543;-75
2023/06/12 02:16:32;;;;;;;6.30;4.60;;;16.60;99.90;;;;;;4965589;28;20454;-75
2023/06/12 02:18:58;;;;;;;5.63;4.57;;;16.60;99.90;;;;;;4963988;28;20531;-74
2023/06/12 02:21:27;;;;;;;7.95;5.18;;;16.60;99.90;;;;;;4965327;28;20553;-73
2023/06/12 02:23:54;;;;;;;6.40;5.27;;;16.60;99.90;;;;;;4968616;28;20255;-74
2023/06/12 02:26:22;;;;;;;6.40;5.17;;;16.60;99.90;;;;;;4967832;28;20487;-77
2023/06/12 02:29:10;;;;;;;9.23;6.03;;;16.60;99.90;;;;;;4968913;28;20478;-72
2023/06/12 02:31:37;;;;;;;4.82;4.32;;;16.60;99.90;;;;;;4976226;28;20520;-73
2023/06/12 02:34:04;;;;;;;8.30;4.90;;;16.60;99.90;;;;;;4981972;28;20229;-74
2023/06/12 02:36:33;;;;;;;6.47;4.53;;;16.50;99.90;;;;;;4978697;28;20466;-75
2023/06/12 02:39:01;;;;;;;9.18;5.53;;;16.60;99.90;;;;;;4972546;28;20478;-73
2023/06/12 02:41:34;;;;;;;6.82;5.80;;;16.50;99.90;;;;;;4970951;28;20262;-74
2023/06/12 02:44:01;;;;;;;5.30;4.70;;;16.50;99.90;;;;;;4965792;28;20228;-76
2023/06/12 02:46:28;;;;;;;7.25;5.75;;;16.50;99.90;;;;;;4969986;28;20479;-75
2023/06/12 02:48:55;;;;;;;5.83;5.13;;;16.40;99.90;;;;;;4965264;28;20245;-75
2023/06/12 02:51:22;;;;;;;6.13;4.77;;;16.50;99.90;;;;;;4967241;28;20860;-74
2023/06/12 02:53:50;;;;;;;6.63;4.80;;;16.50;99.90;;;;;;4964815;28;20457;-74
2023/06/12 02:56:17;;;;;;;9.60;4.70;;;16.40;99.90;;;;;;4966831;28;20215;-74
2023/06/12 02:58:44;;;;;;;5.53;4.60;;;16.40;99.90;;;;;;4966708;28;20218;-71
2023/06/12 03:01:11;;;;;;;10.15;5.75;;;16.40;99.90;;;;;;4972371;28;20729;-74
2023/06/12 03:03:39;;;;;;;8.60;4.70;;;16.40;99.90;;;;;;4981484;28;20300;-74
2023/06/12 03:06:07;;;;;;;5.35;4.70;;;16.40;99.90;;;;;;4985927;28;20216;-76
2023/06/12 03:08:34;;;;;;;8.20;5.03;;;16.40;99.90;;;;;;4963616;28;20279;-74
2023/06/12 03:11:02;;;;;;;7.15;5.90;;;16.40;99.90;;;;;;4963979;28;20205;-76
2023/06/12 03:13:29;;;;;;;6.60;5.90;;;16.40;99.90;;;;;;4968380;28;20300;-74
2023/06/12 03:15:56;;;;;;;7.72;5.68;;;16.40;99.90;;;;;;4964756;28;20329;-75
2023/06/12 03:18:23;;;;;;;9.15;6.25;;;16.40;99.90;;;;;;4965702;28;20216;-74
2023/06/12 03:20:50;;;;;;;8.90;6.15;;;16.40;99.90;;;;;;4966835;28;20291;-76
2023/06/12 03:23:18;;;;;;;6.40;5.07;;;16.40;99.90;;;;;;4960445;28;20266;-74
2023/06/12 03:25:47;;;;;;;7.47;5.10;;;16.40;99.90;;;;;;4968529;28;20900;-74
2023/06/12 03:28:15;;;;;;;8.80;5.43;;;16.40;99.90;;;;;;4969102;28;20450;-75
2023/06/12 03:30:42;;;;;;;11.02;5.20;;;16.40;99.90;;;;;;4968044;28;20672;-74
2023/06/12 03:33:10;;;;;;;11.05;5.40;;;16.40;99.90;;;;;;4970043;28;20735;-74
2023/06/12 03:35:37;;;;;;;6.20;4.60;;;16.50;99.90;;;;;;4974761;28;20205;-75
2023/06/12 03:38:03;;;;;;;8.67;5.60;;;16.50;99.90;;;;;;4965433;28;20492;-75
2023/06/12 03:40:30;;;;;;;8.80;6.17;;;16.50;99.90;;;;;;4971675;28;20487;-74
2023/06/12 03:42:57;;;;;;;10.30;5.67;;;16.50;99.90;;;;;;4977240;28;20491;-74
2023/06/12 03:45:25;;;;;;;5.90;5.30;;;16.60;99.90;;;;;;4970613;28;20542;-75
2023/06/12 03:47:52;;;;;;;9.03;5.37;;;16.60;99.90;;;;;;4975821;28;20899;-76
2023/06/12 03:50:19;;;;;;;6.15;5.13;;;16.70;99.90;;;;;;4969153;28;20461;-73
2023/06/12 03:52:46;;;;;;;8.18;5.97;;;16.70;99.90;;;;;;4973545;28;20308;-75
2023/06/12 03:55:13;;;;;;;6.30;4.87;;;16.80;99.90;;;;;;4969967;28;20760;-74
2023/06/12 03:57:40;;;;;;;9.45;5.18;;;16.80;99.90;;;;;;4975758;28;20453;-76
2023/06/12 04:00:11;;;;;;;10.03;5.90;;;16.90;99.90;;;;;;4976698;28;20241;-75
2023/06/12 04:02:39;;;;;;;7.23;5.10;;;16.90;99.90;;;;;;4968220;28;20499;-76
2023/06/12 04:05:08;;;;;;;9.17;6.63;;;17.10;99.90;;;;;;4974543;28;20483;-75
2023/06/12 04:07:36;;;;;;;6.93;4.40;;;17.60;99.90;;;;;;4971511;28;20446;-74
2023/06/12 04:10:03;;;;;;;8.50;5.03;;;18.30;99.90;;;;;;4972139;28;20469;-74
2023/06/12 04:12:31;;;;;;;7.23;4.87;;;19.00;99.90;;;;;;4978520;28;20567;-75
2023/06/12 04:14:58;;;;;;;9.30;5.10;;;19.80;99.90;;;;;;4969893;28;20444;-74
2023/06/12 04:17:25;;;;;;;6.60;5.20;;;20.50;99.10;;;;;;4976499;28;20453;-76
2023/06/12 04:19:53;;;;;;;8.80;5.10;;;21.20;97.00;;;;;;4970919;28;20477;-74
2023/06/12 04:22:20;;;;;;;6.17;4.93;;;21.80;94.90;;;;;;4973191;28;20580;-75
2023/06/12 04:24:49;;;;;;;7.13;4.80;;;22.30;94.10;;;;;;4974056;28;20528;-72
2023/06/12 04:27:16;;;;;;;12.70;4.83;;;22.90;93.10;;;;;;4962808;28;20455;-73
2023/06/12 04:29:43;;;;;;;10.00;5.50;;;23.40;91.50;;;;;;4968942;28;20467;-75
2023/06/12 04:32:13;;;;;;;9.27;4.73;;;23.80;91.30;;;;;;4966368;28;20468;-74
2023/06/12 04:34:41;;;;;;;11.53;5.10;;;24.30;90.00;;;;;;4968520;28;20454;-74
2023/06/12 04:37:11;;;;;;;11.63;6.40;;;24.80;88.40;;;;;;4969210;28;20456;-74
2023/06/12 04:39:38;;;;;;;6.60;6.00;;;25.30;86.70;;;;;;4968623;28;20509;-73
2023/06/12 04:42:07;;;;;;;15.10;7.87;;;25.70;85.30;;;;;;4967336;28;20804;-72
2023/06/12 04:44:34;;;;;;;11.40;5.77;;;25.90;83.20;;;;;;4969316;28;20442;-73
2023/06/12 04:47:04;;;;;;;8.30;5.40;;;25.90;82.50;;;;;;4969245;28;20949;-75
2023/06/12 04:49:33;;;;;;;6.20;5.27;;;26.10;82.30;;;;;;4970594;28;20552;-74
2023/06/12 04:52:02;;;;;;;10.40;5.30;;;26.40;81.80;;;;;;4975573;28;20817;-75
2023/06/12 04:54:35;;;;;;;10.70;6.60;;;26.80;80.50;;;;;;4970115;28;20438;-74
2023/06/12 04:57:03;;;;;;;6.20;4.97;;;27.10;78.80;;;;;;4968863;28;20932;-72
2023/06/12 04:59:30;;;;;;;6.57;5.93;;;27.30;77.80;;;;;;4965692;28;20446;-74
2023/06/12 05:01:58;;;;;;;9.43;7.03;;;27.30;76.70;;;;;;4966663;28;20458;-72
2023/06/12 05:04:25;;;;;;;7.93;5.10;;;27.50;76.50;;;;;;4972705;28;20488;-74
2023/06/12 05:06:54;;;;;;;9.43;6.10;;;27.80;75.90;;;;;;4962936;28;20450;-73
2023/06/12 05:09:21;;;;;;;7.73;5.43;;;27.80;75.20;;;;;;4968632;28;20470;-74
2023/06/12 05:11:49;;;;;;;8.63;5.70;;;27.90;74.50;;;;;;4968765;28;20442;-74
2023/06/12 05:14:16;;;;;;;9.57;6.47;;;28.30;74.20;;;;;;4965977;28;20443;-73
2023/06/12 05:16:46;;;;;;;7.03;6.03;;;28.70;73.20;;;;;;4967058;28;20478;-75
2023/06/12 05:19:13;;;;;;;8.03;6.90;;;28.60;72.00;;;;;;4968346;28;20498;-74
2023/06/12 05:21:41;;;;;;;13.20;6.60;;;28.80;71.70;;;;;;4970192;28;20525;-73
2023/06/12 05:24:08;;;;;;;7.43;6.57;;;28.70;71.10;;;;;;4974497;28;20489;-71
2023/06/12 05:26:35;;;;;;;7.77;6.93;;;28.80;70.90;;;;;;4976545;28;20438;-73
2023/06/12 05:29:04;;;;;;;7.40;5.57;;;29.00;70.40;;;;;;4967048;28;20945;-73
2023/06/12 05:31:30;;;;;;;9.93;6.67;;;29.50;69.40;;;;;;4966047;28;20880;-72
2023/06/12 05:33:57;;;;;;;5.97;5.30;;;29.60;68.80;;;;;;4965248;28;20468;-72
2023/06/12 05:36:24;;;;;;;8.73;5.40;;;30.20;68.10;;;;;;4970553;28;20469;-74
2023/06/12 05:38:51;;;;;;;8.07;6.83;;;30.30;66.90;;;;;;4965876;28;20524;-73
2023/06/12 05:41:18;;;;;;;9.93;6.60;;;30.90;66.10;;;;;;4965509;28;20536;-73
2023/06/12 05:43:45;;;;;;;7.47;6.27;;;31.20;64.90;;;;;;4963920;28;20572;-72
2023/06/12 05:46:14;;;;;;;8.07;7.20;;;31.30;64.40;;;;;;4969983;28;20441;-74
2023/06/12 05:48:41;;;;;;;10.80;6.50;;;31.10;64.30;;;;;;4966754;28;20474;-75
2023/06/12 05:51:08;;;;;;;7.80;7.10;;;31.30;63.70;;;;;;4967869;28;20438;-74
2023/06/12 05:53:35;;;;;;;7.93;7.03;;;31.60;62.90;;;;;;4965859;28;20459;-73
2023/06/12 05:56:03;;;;;;;10.70;7.50;;;31.80;62.00;;;;;;4964382;28;20879;-73
2023/06/12 05:58:31;;;;;;;9.93;9.03;;;31.30;62.30;;;;;;4964272;28;20493;-71
2023/06/12 06:01:00;;;;;;;8.40;7.60;;;31.60;62.10;;;;;;4968177;28;20446;-72
2023/06/12 06:03:33;;;;;;;8.87;7.87;;;31.80;62.70;;;;;;4965065;28;20520;-73
2023/06/12 06:06:00;;;;;;;9.30;7.77;;;32.40;60.80;;;;;;4965835;28;20501;-74
2023/06/12 06:08:27;;;;;;;8.07;7.37;;;32.70;60.00;;;;;;4969062;28;20446;-72
2023/06/12 06:10:54;;;;;;;7.67;6.87;;;33.10;59.40;;;;;;4965395;28;20534;-74
2023/06/12 06:13:21;;;;;;;10.23;7.50;;;33.80;58.50;;;;;;4968302;28;20889;-73
2023/06/12 06:15:49;;;;;;;10.17;7.90;;;34.10;57.40;;;;;;4966331;28;20538;-73
2023/06/12 06:18:16;;;;;;;8.57;7.60;;;33.80;57.30;;;;;;4968869;28;20450;-73
2023/06/12 06:20:45;;;;;;;10.80;8.67;;;33.80;57.20;;;;;;4968346;28;20446;-74
2023/06/12 06:23:12;;;;;;;10.87;9.10;;;33.70;56.40;;;;;;4968425;28;20497;-73
2023/06/12 06:25:39;;;;;;;10.00;9.00;;;33.80;57.30;;;;;;4970298;28;20592;-73
2023/06/12 06:28:06;;;;;;;9.63;7.77;;;34.10;56.80;;;;;;4969172;28;20472;-72
2023/06/12 06:30:33;;;;;;;10.80;9.70;;;34.50;55.70;;;;;;4966687;28;20441;-74
2023/06/12 06:33:00;;;;;;;10.17;8.33;;;34.70;55.30;;;;;;4964731;28;20859;-74
2023/06/12 06:35:27;;;;;;;8.30;7.43;;;35.10;54.30;;;;;;4962290;28;20505;-73
2023/06/12 06:37:56;;;;;;;10.57;8.40;;;35.20;53.90;;;;;;4964676;28;20442;-75
2023/06/12 06:40:23;;;;;;;10.03;7.60;;;35.40;53.70;;;;;;4963450;28;20456;-72
2023/06/12 06:42:50;;;;;;;10.70;9.00;;;35.00;53.50;;;;;;4964936;28;20501;-74
2023/06/12 06:45:17;;;;;;;10.80;9.90;;;34.90;53.50;;;;;;4965670;28;20996;-73
2023/06/12 06:47:43;;;;;;;10.23;9.40;;;34.90;52.90;;;;;;4967933;28;20445;-74
2023/06/12 06:50:11;;;;;;;9.80;8.80;;;34.70;53.10;;;;;;4961071;28;20505;-74
2023/06/12 06:52:38;;;;;;;11.47;9.80;;;34.40;53.80;;;;;;4965113;28;20466;-71
2023/06/12 06:55:06;;;;;;;11.33;8.43;;;34.10;53.50;;;;;;4964080;28;20437;-73
2023/06/12 06:57:38;;;;;;;11.80;10.70;;;34.00;53.80;;;;;;4968619;28;20452;-74
2023/06/12 07:00:06;;;;;;;11.70;10.70;;;34.30;53.60;;;;;;4960867;28;20450;-74
2023/06/12 07:02:33;;;;;;;10.93;9.80;;;34.50;54.00;;;;;;4965644;28;20505;-74
2023/06/12 07:05:00;;;;;;;10.50;9.60;;;34.80;53.20;;;;;;4961201;28;20492;-75
2023/06/12 07:07:27;;;;;;;10.90;9.90;;;35.20;52.80;;;;;;4972071;28;20579;-74
2023/06/12 07:09:54;;;;;;;11.60;10.07;;;34.90;51.70;;;;;;4964506;28;20541;-74
2023/06/12 07:12:22;;;;;;;10.67;9.67;;;34.50;52.70;;;;;;4966088;28;20466;-72
2023/06/12 07:14:49;;;;;;;21.10;11.57;;;34.90;52.80;;;;;;4964639;28;20545;-75
2023/06/12 07:17:16;;;;;;;11.60;10.53;;;34.30;52.60;;;;;;4962936;28;20972;-74
2023/06/12 07:19:43;;;;;;;10.03;9.23;;;34.40;53.20;;;;;;4968434;28;20469;-73
2023/06/12 07:22:10;;;;;;;11.13;10.13;;;34.90;53.10;;;;;;4969557;28;20516;-71
2023/06/12 07:24:37;;;;;;;10.60;9.60;;;35.30;52.70;;;;;;4974325;28;20476;-73
2023/06/12 07:27:04;;;;;;;12.80;11.40;;;35.20;52.70;;;;;;4967277;28;20549;-74
2023/06/12 07:29:32;;;;;;;11.93;10.73;;;35.20;52.90;;;;;;4966977;28;20450;-74
2023/06/12 07:31:59;;;;;;;13.73;10.00;;;35.00;53.10;;;;;;4967823;28;20477;-74
2023/06/12 07:34:26;;;;;;;11.73;10.73;;;35.30;52.70;;;;;;4968136;28;20462;-73
2023/06/12 07:36:53;;;;;;;12.50;10.07;;;35.30;52.90;;;;;;4970112;28;20528;-74
2023/06/12 07:39:20;;;;;;;11.83;10.57;;;35.30;52.70;;;;;;4966537;28;20462;-73
2023/06/12 07:41:47;;;;;;;12.37;11.17;;;35.50;52.20;;;;;;4973427;28;20481;-73
2023/06/12 07:44:14;;;;;;;12.50;11.40;;;35.50;52.10;;;;;;4974337;28;20495;-73
2023/06/12 07:46:43;;;;;;;12.03;10.83;;;35.60;52.30;;;;;;4974539;28;20533;-74
2023/06/12 07:49:12;;;;;;;12.53;11.47;;;35.50;52.50;;;;;;4974229;28;20481;-72
2023/06/12 07:51:39;;;;;;;13.07;11.27;;;35.60;52.90;;;;;;4964116;28;20463;-73
2023/06/12 07:54:06;;;;;;;11.67;10.73;;;36.00;52.10;;;;;;4966974;28;20544;-72
2023/06/12 07:56:35;;;;;;;11.60;10.20;;;36.40;51.00;;;;;;4967475;28;20455;-73
2023/06/12 07:59:07;;;;;;;11.97;10.80;;;36.40;50.80;;;;;;4970495;28;20941;-74
2023/06/12 08:01:34;;;;;;;12.80;11.67;;;36.60;50.90;;;;;;4967808;28;20445;-74
2023/06/12 08:04:04;;;;;;;11.73;10.70;;;37.00;49.70;;;;;;4971946;28;20494;-73
2023/06/12 08:06:35;;;;;;;12.40;11.23;;;36.80;49.90;;;;;;4968107;28;20480;-74
2023/06/12 08:09:02;;;;;;;11.80;10.63;;;36.60;49.70;;;;;;4970238;28;20506;-73
2023/06/12 08:11:29;;;;;;;11.43;10.53;;;36.90;50.10;;;;;;4966258;28;20506;-73
2023/06/12 08:13:56;;;;;;;11.30;10.40;;;36.40;49.30;;;;;;4970703;28;20969;-74
2023/06/12 08:16:25;;;;;;;11.03;10.13;;;36.70;49.30;;;;;;4968026;28;20434;-73
2023/06/12 08:18:53;;;;;;;11.80;10.90;;;36.80;49.10;;;;;;4973508;28;20448;-71
2023/06/12 08:21:21;;;;;;;11.63;10.43;;;37.40;48.30;;;;;;4973673;28;20542;-72
2023/06/12 08:23:48;;;;;;;11.53;10.43;;;37.30;48.40;;;;;;4969507;28;20485;-74
2023/06/12 08:26:16;;;;;;;10.80;10.07;;;36.90;48.00;;;;;;4975589;28;20474;-72
2023/06/12 08:28:42;;;;;;;12.13;11.17;;;37.10;48.20;;;;;;4973677;28;20462;-71
2023/06/12 08:31:09;;;;;;;11.17;10.07;;;37.10;47.60;;;;;;4976037;28;20449;-72
2023/06/12 08:33:36;;;;;;;11.90;10.80;;;37.00;48.20;;;;;;4975475;28;20542;-72
2023/06/12 08:36:03;;;;;;;11.73;10.37;;;37.40;47.70;;;;;;4968681;28;20457;-74
2023/06/12 08:38:32;;;;;;;10.77;10.07;;;37.30;47.10;;;;;;4969134;28;20457;-72
2023/06/12 08:41:01;;;;;;;13.83;10.20;;;37.20;47.30;;;;;;4965438;28;20450;-73
2023/06/12 08:43:29;;;;;;;18.83;10.60;;;36.90;47.50;;;;;;4968962;28;20828;-74
2023/06/12 08:45:58;;;;;;;10.73;9.90;;;35.90;48.00;;;;;;4964471;28;20799;-74
2023/06/12 08:48:27;;;;;;;11.93;10.27;;;35.00;49.00;;;;;;4968733;28;20482;-76
2023/06/12 08:50:55;;;;;;;10.13;9.30;;;33.70;50.40;;;;;;4968176;28;20537;-73
2023/06/12 08:53:23;;;;;;;11.97;10.33;;;32.30;52.70;;;;;;4968591;28;20509;-75
2023/06/12 08:55:51;;;;;;;12.90;10.20;;;31.70;54.20;;;;;;4967542;28;20846;-75
2023/06/12 08:58:18;;;;;;;13.13;10.40;;;32.00;55.00;;;;;;4969940;28;20541;-75
2023/06/12 09:00:45;;;;;;;18.60;9.90;;;32.50;54.30;;;;;;4969817;28;20454;-73
2023/06/12 09:03:12;;;;;;;15.50;9.73;;;33.40;53.00;;;;;;4971039;28;20519;-74
2023/06/12 09:05:41;;;;;;;10.17;9.27;;;34.00;51.90;;;;;;4965062;28;20568;-73
2023/06/12 09:08:07;;;;;;;12.03;10.60;;;34.80;50.70;;;;;;4966979;28;20459;-74
2023/06/12 09:10:37;;;;;;;11.07;10.07;;;35.20;50.20;;;;;;4966373;28;20529;-72
2023/06/12 09:13:09;;;;;;;10.77;9.93;;;35.60;49.80;;;;;;4967684;28;20561;-72
2023/06/12 09:15:37;;;;;;;12.73;11.67;;;36.20;49.70;;;;;;4965978;28;20929;-72
2023/06/12 09:18:10;;;;;;;13.53;12.13;;;36.50;48.90;;;;;;4965752;28;20959;-73
2023/06/12 09:20:38;;;;;;;9.97;9.00;;;36.80;47.90;;;;;;4966334;28;20540;-73
2023/06/12 09:23:05;;;;;;;12.27;9.37;;;36.80;45.80;;;;;;4964595;28;20470;-72
2023/06/12 09:25:35;;;;;;;11.73;8.47;;;35.50;45.40;;;;;;4970111;28;20481;-74
2023/06/12 09:28:03;;;;;;;11.50;9.60;;;34.20;46.90;;;;;;4964116;28;20961;-72
2023/06/12 09:30:33;;;;;;;14.07;9.50;;;33.10;48.50;;;;;;4963280;28;20457;-72
2023/06/12 09:33:01;;;;;;;9.63;8.73;;;32.90;49.10;;;;;;4965733;28;20557;-76
2023/06/12 09:35:27;;;;;;;8.33;7.60;;;33.30;50.10;;;;;;4967905;28;20827;-74
2023/06/12 09:37:55;;;;;;;9.97;9.07;;;32.90;49.30;;;;;;4969638;28;20537;-74
2023/06/12 09:40:22;;;;;;;10.00;9.10;;;33.00;49.70;;;;;;4970438;28;20530;-73
2023/06/12 09:42:50;;;;;;;9.47;8.57;;;33.20;49.60;;;;;;4965789;28;20468;-74
2023/06/12 09:45:18;;;;;;;13.93;9.07;;;32.60;49.90;;;;;;4964174;28;20505;-74
2023/06/12 09:47:47;;;;;;;10.13;9.13;;;32.80;50.50;;;;;;4969220;28;20759;-72
2023/06/12 09:50:15;;;;;;;8.93;8.23;;;32.70;51.50;;;;;;4975370;28;20474;-73
2023/06/12 09:52:43;;;;;;;9.23;8.30;;;33.10;50.30;;;;;;4966903;28;20966;-75
2023/06/12 09:55:13;;;;;;;8.77;7.97;;;33.50;49.60;;;;;;4968246;28;20929;-75
2023/06/12 09:57:42;;;;;;;9.40;8.47;;;33.60;48.70;;;;;;4966636;28;20446;-72
2023/06/12 10:00:11;;;;;;;8.90;7.97;;;33.90;47.20;;;;;;4962353;28;20454;-74
2023/06/12 10:02:41;;;;;;;9.03;8.33;;;33.70;47.20;;;;;;4962950;28;20821;-74
2023/06/12 10:05:17;;;;;;;10.03;8.43;;;33.50;48.60;;;;;;4965955;28;20853;-74
2023/06/12 10:07:48;;;;;;;12.10;8.70;;;33.60;47.70;;;;;;4960270;28;20444;-71
2023/06/12 10:10:16;;;;;;;11.60;8.57;;;32.80;47.30;;;;;;4972045;28;20450;-73
2023/06/12 10:12:43;;;;;;;10.00;9.10;;;32.80;48.20;;;;;;4964259;28;20557;-75
2023/06/12 10:15:12;;;;;;;10.77;8.37;;;33.20;48.20;;;;;;4970935;28;20509;-73
2023/06/12 10:17:41;;;;;;;9.40;8.40;;;33.50;47.30;;;;;;4969254;28;20503;-74
2023/06/12 10:20:11;;;;;;;8.77;7.87;;;33.70;47.30;;;;;;4974488;28;20443;-74
2023/06/12 10:22:38;;;;;;;8.97;7.97;;;33.60;46.20;;;;;;4963937;28;20466;-74
2023/06/12 10:25:06;;;;;;;8.03;7.33;;;33.40;46.20;;;;;;4960104;28;21004;-73
2023/06/12 10:27:34;;;;;;;7.40;6.80;;;33.60;45.30;;;;;;4963493;28;20936;-74
2023/06/12 10:30:01;;;;;;;10.20;8.90;;;34.00;45.30;;;;;;4967124;28;20929;-73
2023/06/12 10:32:32;;;;;;;10.40;7.30;;;33.70;45.20;;;;;;4966410;28;20477;-72
2023/06/12 10:35:01;;;;;;;8.37;7.70;;;33.20;45.90;;;;;;4965442;28;20438;-74
2023/06/12 10:37:31;;;;;;;9.53;8.73;;;32.90;46.70;;;;;;4968543;28;20972;-72
2023/06/12 10:40:09;;;;;;;10.00;8.67;;;32.30;47.20;;;;;;4968637;28;20446;-72
2023/06/12 10:42:47;;;;;;;9.90;8.90;;;32.00;47.70;;;;;;4972988;28;20873;-72
2023/06/12 10:45:19;;;;;;;8.60;7.80;;;31.60;47.70;;;;;;4970937;28;20927;-71
2023/06/12 10:48:20;;;;;;;9.17;8.37;;;31.70;47.70;;;;;;4968286;28;20477;-73
2023/06/12 10:50:53;;;;;;;14.50;9.87;;;31.60;48.20;;;;;;4971948;28;20463;-74
2023/06/12 10:53:25;;;;;;;10.33;8.30;;;31.20;48.40;;;;;;4968673;28;20541;-72
2023/06/12 10:55:57;;;;;;;8.43;7.63;;;31.10;48.60;;;;;;4972294;28;20512;-74
2023/06/12 10:58:25;;;;;;;8.43;7.70;;;31.00;48.40;;;;;;4967393;28;21015;-73
2023/06/12 11:00:53;;;;;;;13.50;7.90;;;30.90;49.60;;;;;;4968828;28;20442;-75
2023/06/12 11:03:25;;;;;;;8.60;7.70;;;31.00;48.40;;;;;;4971847;28;20560;-74
2023/06/12 11:05:55;;;;;;;12.07;8.73;;;31.00;48.10;;;;;;4969584;28;20485;-73
2023/06/12 11:08:26;;;;;;;11.17;7.90;;;30.90;47.30;;;;;;4972131;28;20453;-74
2023/06/12 11:10:53;;;;;;;10.93;8.20;;;31.00;47.70;;;;;;4969024;28;20812;-73
2023/06/12 11:13:23;;;;;;;10.63;9.43;;;30.90;47.20;;;;;;4972294;28;20469;-74
2023/06/12 11:15:51;;;;;;;11.10;7.90;;;30.90;47.80;;;;;;4971100;28;20441;-76
2023/06/12 11:18:19;;;;;;;8.70;7.77;;;30.90;48.10;;;;;;4967575;28;20457;-74
2023/06/12 11:20:53;;;;;;;8.97;8.17;;;30.90;48.00;;;;;;4980604;28;20449;-73
2023/06/12 11:23:24;;;;;;;11.53;7.77;;;30.90;48.10;;;;;;4978436;28;20808;-75
2023/06/12 11:25:53;;;;;;;14.30;8.20;;;30.50;47.70;;;;;;4968888;28;20487;-73
2023/06/12 11:28:20;;;;;;;7.63;6.93;;;30.50;47.90;;;;;;4970159;28;20454;-75
2023/06/12 11:30:48;;;;;;;8.83;7.93;;;30.40;47.70;;;;;;4965241;28;21522;-74
2023/06/12 11:33:17;;;;;;;10.40;8.37;;;30.10;47.60;;;;;;4972549;28;20504;-71
2023/06/12 11:35:45;;;;;;;8.60;7.77;;;30.10;48.30;;;;;;4973280;28;20452;-73
2023/06/12 11:38:14;;;;;;;7.97;7.27;;;30.10;48.00;;;;;;4972667;28;20890;-75
2023/06/12 11:40:43;;;;;;;7.83;7.17;;;30.00;48.30;;;;;;4973126;28;20484;-75
2023/06/12 11:43:10;;;;;;;8.40;7.47;;;30.10;47.40;;;;;;4968595;28;20467;-74
2023/06/12 11:45:41;;;;;;;8.60;7.90;;;30.30;47.20;;;;;;4977801;28;20502;-74
2023/06/12 11:48:13;;;;;;;8.40;7.60;;;30.10;47.20;;;;;;4970972;28;20504;-71
2023/06/12 11:50:40;;;;;;;8.23;7.50;;;29.90;46.60;;;;;;4978186;28;20513;-74
2023/06/12 11:53:07;;;;;;;8.30;7.03;;;30.10;47.10;;;;;;4981319;28;20472;-73
2023/06/12 11:55:36;;;;;;;7.40;6.80;;;30.00;47.20;;;;;;4968081;28;20450;-72
2023/06/12 11:58:04;;;;;;;8.20;7.50;;;30.20;46.80;;;;;;4971319;28;20498;-76
2023/06/12 12:00:33;;;;;;;9.33;7.20;;;30.40;46.70;;;;;;4973146;28;20442;-74
2023/06/12 12:03:03;;;;;;;8.53;7.40;;;30.40;46.20;;;;;;4969173;28;20976;-74
2023/06/12 12:05:35;;;;;;;13.07;7.97;;;30.30;45.80;;;;;;4966160;28;21070;-74
2023/06/12 12:08:04;;;;;;;7.80;7.20;;;30.40;46.50;;;;;;4967166;28;20458;-76
2023/06/12 12:10:33;;;;;;;6.60;6.10;;;30.40;45.90;;;;;;4975715;28;20448;-74
2023/06/12 12:13:01;;;;;;;8.07;7.37;;;30.40;45.40;;;;;;4968211;28;20554;-73
2023/06/12 12:15:31;;;;;;;8.47;7.67;;;30.40;45.60;;;;;;4971447;28;20477;-74
2023/06/12 12:17:59;;;;;;;7.50;6.90;;;30.30;45.90;;;;;;4973258;28;20496;-74
2023/06/12 12:20:27;;;;;;;10.13;7.40;;;30.10;45.90;;;;;;4971751;28;20526;-75
2023/06/12 12:22:56;;;;;;;7.80;7.07;;;29.80;45.90;;;;;;4976948;28;20536;-72
2023/06/12 12:25:26;;;;;;;8.00;6.87;;;29.50;46.30;;;;;;4977485;28;20522;-72
2023/06/12 12:27:54;;;;;;;9.10;7.17;;;29.50;46.30;;;;;;4966396;28;20520;-73
2023/06/12 12:30:22;;;;;;;8.47;7.43;;;29.60;46.40;;;;;;4972571;28;20454;-72
2023/06/12 12:32:52;;;;;;;14.33;7.33;;;29.70;46.50;;;;;;4965166;28;20465;-73
2023/06/12 12:35:20;;;;;;;7.90;7.13;;;29.60;46.00;;;;;;4969770;28;20442;-73
2023/06/12 12:37:48;;;;;;;7.67;6.97;;;29.70;46.10;;;;;;4968085;28;20442;-75
2023/06/12 12:40:15;;;;;;;7.43;6.67;;;29.70;46.80;;;;;;4966277;28;20442;-75
2023/06/12 12:42:44;;;;;;;7.23;6.53;;;29.60;46.40;;;;;;4968157;28;20545;-75
2023/06/12 12:45:15;;;;;;;7.17;6.47;;;29.50;46.10;;;;;;4965226;28;20474;-74
2023/06/12 12:47:44;;;;;;;13.47;6.90;;;29.50;45.90;;;;;;4968114;28;20449;-74